createdAt,value
2019-03-10T00:00:21.229Z,12.00
2019-03-10T00:02:49.843Z,13.10
2019-03-10T00:05:18.445Z,13.67
2019-03-10T00:07:47.157Z,9.07
2019-03-10T00:10:15.829Z,15.43
2019-03-10T00:12:44.434Z,15.07
2019-03-10T00:15:13.249Z,11.97
2019-03-10T00:17:41.850Z,9.90
2019-03-10T00:20:10.959Z,15.60
2019-03-10T00:22:39.761Z,11.37
2019-03-10T00:25:09.668Z,13.20
2019-03-10T00:27:38.345Z,12.97
2019-03-10T00:30:14.692Z,10.23
2019-03-10T00:32:43.307Z,9.17
2019-03-10T00:35:11.982Z,16.10
2019-03-10T00:37:40.685Z,21.50
2019-03-10T00:40:21.033Z,8.53
2019-03-10T00:43:24.090Z,7.40
2019-03-10T00:46:28.506Z,15.33
2019-03-10T00:49:08.517Z,9.30
2019-03-10T00:51:48.813Z,15.30
2019-03-10T00:54:17.382Z,12.30
2019-03-10T00:56:45.927Z,11.33
2019-03-10T00:59:14.605Z,12.37
2019-03-10T01:01:43.197Z,17.20
2019-03-10T01:04:11.729Z,8.67
2019-03-10T01:06:40.336Z,12.47
2019-03-10T01:09:09.461Z,11.13
2019-03-10T01:11:38.542Z,12.50
2019-03-10T01:14:07.157Z,11.60
2019-03-10T01:16:36.467Z,12.63
2019-03-10T01:19:05.067Z,9.93
2019-03-10T01:21:35.548Z,13.27
2019-03-10T01:24:04.185Z,8.27
2019-03-10T01:26:32.787Z,7.17
2019-03-10T01:32:05.696Z,13.23
2019-03-10T01:34:52.319Z,11.07
2019-03-10T01:37:20.892Z,11.30
2019-03-10T01:39:49.424Z,14.30
2019-03-10T01:42:17.961Z,8.83
2019-03-10T01:44:46.433Z,11.20
2019-03-10T01:47:15.037Z,14.77
2019-03-10T01:49:43.528Z,13.07
2019-03-10T01:52:12.063Z,9.63
2019-03-10T01:54:40.527Z,17.17
2019-03-10T01:57:09.153Z,12.03
2019-03-10T01:59:37.620Z,11.60
2019-03-10T02:02:06.225Z,11.80
2019-03-10T02:04:34.774Z,17.73
2019-03-10T02:07:03.397Z,14.97
2019-03-10T02:09:31.981Z,14.50
2019-03-10T02:12:00.446Z,9.20
2019-03-10T02:14:28.997Z,13.90
2019-03-10T02:16:57.529Z,9.47
2019-03-10T02:19:25.998Z,12.57
2019-03-10T02:21:54.570Z,14.17
2019-03-10T02:24:24.126Z,16.57
2019-03-10T02:26:52.847Z,15.30
2019-03-10T02:29:21.500Z,9.87
2019-03-10T02:31:50.998Z,13.00
2019-03-10T02:34:19.549Z,10.87
2019-03-10T02:36:48.311Z,12.10
2019-03-10T02:39:16.845Z,14.97
2019-03-10T02:41:45.312Z,9.27
2019-03-10T02:44:13.906Z,10.77
2019-03-10T02:46:42.580Z,9.37
2019-03-10T02:49:11.125Z,10.47
2019-03-10T02:51:39.753Z,12.23
2019-03-10T02:54:08.305Z,7.23
2019-03-10T02:56:36.832Z,11.83
2019-03-10T02:59:05.377Z,18.70
2019-03-10T03:01:33.923Z,11.30
2019-03-10T03:04:02.489Z,14.80
2019-03-10T03:06:31.098Z,14.37
2019-03-10T03:08:59.707Z,19.43
2019-03-10T03:11:28.414Z,11.93
2019-03-10T03:13:56.946Z,9.57
2019-03-10T03:16:25.481Z,7.83
2019-03-10T03:18:53.983Z,15.07
2019-03-10T03:21:22.602Z,10.90
2019-03-10T03:23:51.140Z,8.47
2019-03-10T03:26:19.773Z,13.27
2019-03-10T03:28:48.304Z,9.70
2019-03-10T03:31:16.927Z,8.57
2019-03-10T03:33:45.558Z,11.83
2019-03-10T03:36:28.437Z,12.63
2019-03-10T03:39:03.807Z,12.33
2019-03-10T03:41:32.343Z,10.37
2019-03-10T03:44:00.953Z,12.73
2019-03-10T03:46:29.634Z,11.80
2019-03-10T03:48:58.238Z,10.57
2019-03-10T03:51:26.848Z,5.10
2019-03-10T03:53:55.602Z,11.63
2019-03-10T03:56:24.145Z,10.27
2019-03-10T03:58:52.614Z,12.93
2019-03-10T04:01:28.382Z,10.30
2019-03-10T04:03:56.913Z,9.70
2019-03-10T04:06:25.516Z,11.93
2019-03-10T04:08:54.083Z,7.67
2019-03-10T04:11:22.681Z,7.47
2019-03-10T04:13:51.267Z,10.47
2019-03-10T04:16:19.865Z,11.33
2019-03-10T04:18:48.471Z,6.33
2019-03-10T04:21:17.009Z,9.50
2019-03-10T04:23:45.575Z,11.40
2019-03-10T04:26:14.115Z,11.07
2019-03-10T04:28:42.654Z,7.40
2019-03-10T04:31:11.227Z,14.20
2019-03-10T04:33:39.957Z,12.77
2019-03-10T04:36:08.419Z,6.17
2019-03-10T04:38:36.986Z,11.70
2019-03-10T04:41:05.589Z,11.07
2019-03-10T04:43:34.141Z,12.50
2019-03-10T04:46:02.845Z,11.50
2019-03-10T04:48:31.377Z,11.10
2019-03-10T04:50:59.923Z,9.60
2019-03-10T04:53:28.500Z,11.27
2019-03-10T04:55:58.679Z,8.90
2019-03-10T04:58:27.217Z,11.23
2019-03-10T05:00:57.349Z,11.00
2019-03-10T05:03:25.958Z,11.27
2019-03-10T05:05:54.565Z,13.27
2019-03-10T05:08:23.138Z,11.63
2019-03-10T05:10:51.606Z,9.80
2019-03-10T05:13:20.073Z,14.90
2019-03-10T05:15:48.662Z,8.87
2019-03-10T05:18:17.205Z,5.43
2019-03-10T05:20:45.741Z,11.53
2019-03-10T05:23:29.515Z,8.77
2019-03-10T05:25:58.891Z,13.70
2019-03-10T05:28:28.697Z,11.50
2019-03-10T05:30:57.261Z,7.97
2019-03-10T05:33:25.801Z,6.63
2019-03-10T05:35:54.260Z,8.67
2019-03-10T05:38:22.752Z,12.50
2019-03-10T05:40:51.213Z,10.03
2019-03-10T05:43:19.673Z,5.70
2019-03-10T05:45:48.141Z,11.67
2019-03-10T05:48:16.607Z,6.80
2019-03-10T05:50:45.245Z,6.20
2019-03-10T05:53:15.185Z,11.03
2019-03-10T05:55:43.645Z,10.53
2019-03-10T05:58:12.180Z,10.20
2019-03-10T06:00:42.927Z,14.77
2019-03-10T06:03:10.922Z,12.00
2019-03-10T06:05:39.452Z,11.17
2019-03-10T06:08:07.924Z,11.17
2019-03-10T06:10:36.677Z,9.67
2019-03-10T06:13:05.358Z,8.47
2019-03-10T06:15:33.965Z,9.80
2019-03-10T06:18:12.733Z,7.90
2019-03-10T06:20:32.719Z,10.27
2019-03-10T06:23:01.261Z,13.23
2019-03-10T06:25:29.882Z,12.30
2019-03-10T06:27:58.426Z,10.40
2019-03-10T06:30:27.061Z,8.67
2019-03-10T06:32:55.645Z,10.17
2019-03-10T06:35:24.249Z,9.33
2019-03-10T06:37:52.721Z,11.00
2019-03-10T06:40:31.397Z,7.67
2019-03-10T06:42:51.601Z,8.97
2019-03-10T06:45:20.141Z,8.70
2019-03-10T06:47:48.636Z,13.30
2019-03-10T06:50:17.188Z,8.43
2019-03-10T06:52:45.717Z,14.77
2019-03-10T06:55:14.240Z,8.20
2019-03-10T06:57:42.782Z,15.20
2019-03-10T07:00:13.366Z,12.40
2019-03-10T07:02:42.000Z,12.37
2019-03-10T07:05:13.821Z,8.53
2019-03-10T07:07:42.340Z,12.43
2019-03-10T07:10:15.805Z,10.87
2019-03-10T07:12:44.342Z,10.70
2019-03-10T07:15:13.812Z,11.20
2019-03-10T07:17:42.454Z,9.97
2019-03-10T07:20:13.692Z,13.67
2019-03-10T07:22:42.221Z,9.27
2019-03-10T07:25:10.866Z,13.23
2019-03-10T07:27:44.077Z,16.43
2019-03-10T07:30:30.084Z,11.17
2019-03-10T07:33:16.567Z,15.33
2019-03-10T07:35:55.772Z,13.83
2019-03-10T07:38:28.613Z,15.80
2019-03-10T07:41:01.566Z,14.23
2019-03-10T07:43:31.752Z,12.20
2019-03-10T07:46:08.153Z,12.67
2019-03-10T07:48:44.351Z,12.50
2019-03-10T07:51:23.223Z,14.53
2019-03-10T07:53:53.449Z,16.43
2019-03-10T07:56:29.596Z,13.93
2019-03-10T07:59:02.418Z,8.30
2019-03-10T08:01:48.890Z,10.53
2019-03-10T08:04:21.872Z,11.70
2019-03-10T08:06:52.117Z,10.67
2019-03-10T08:09:31.376Z,14.17
2019-03-10T08:12:10.521Z,14.70
2019-03-10T08:14:40.805Z,14.67
2019-03-10T08:17:13.869Z,14.80
2019-03-10T08:19:46.965Z,12.03
2019-03-10T08:22:26.037Z,17.30
2019-03-10T08:25:11.442Z,13.87
2019-03-10T08:28:01.530Z,15.90
2019-03-10T08:30:44.659Z,15.43
2019-03-10T08:33:14.837Z,12.27
2019-03-10T08:35:45.016Z,13.23
2019-03-10T08:38:15.149Z,12.30
2019-03-10T08:40:54.209Z,12.63
2019-03-10T08:43:42.193Z,10.53
2019-03-10T08:46:12.321Z,10.27
2019-03-10T08:48:48.249Z,10.93
2019-03-10T08:51:21.100Z,9.27
2019-03-10T08:53:54.235Z,14.90
2019-03-10T08:56:24.340Z,12.50
2019-03-10T08:59:03.372Z,9.33
2019-03-10T09:01:42.395Z,11.03
2019-03-10T09:04:28.998Z,13.30
2019-03-10T09:07:05.274Z,9.77
2019-03-10T09:09:50.424Z,11.23
2019-03-10T09:12:20.597Z,9.80
2019-03-10T09:14:56.629Z,10.33
2019-03-10T09:17:26.734Z,10.53
2019-03-10T09:20:05.645Z,15.63
2019-03-10T09:22:53.643Z,11.97
2019-03-10T09:25:23.860Z,11.87
2019-03-10T09:28:03.008Z,11.80
2019-03-10T09:30:51.081Z,10.03
2019-03-10T09:33:21.259Z,13.30
2019-03-10T09:35:51.527Z,12.80
2019-03-10T09:38:30.785Z,11.90
2019-03-10T09:41:03.405Z,10.83
2019-03-10T09:43:39.415Z,15.73
2019-03-10T09:46:12.596Z,12.90
2019-03-10T09:48:45.602Z,14.63
2019-03-10T09:51:15.849Z,13.13
2019-03-10T09:53:46.031Z,16.00
2019-03-10T09:56:32.608Z,16.77
2019-03-10T09:59:17.578Z,15.00
2019-03-10T10:01:53.807Z,16.87
2019-03-10T10:04:26.952Z,12.77
2019-03-10T10:07:06.274Z,14.07
2019-03-10T10:09:45.320Z,21.63
2019-03-10T10:12:18.326Z,27.40
2019-03-10T10:14:48.827Z,32.70
2019-03-10T10:17:24.850Z,11.37
2019-03-10T10:20:04.182Z,17.93
2019-03-10T10:22:37.225Z,14.60
2019-03-10T10:25:08.332Z,15.03
2019-03-10T10:27:41.173Z,20.13
2019-03-10T10:30:31.282Z,16.47
2019-03-10T10:33:10.313Z,13.77
2019-03-10T10:35:40.601Z,15.80
2019-03-10T10:38:25.700Z,13.23
2019-03-10T10:41:11.653Z,15.93
2019-03-10T10:43:41.828Z,18.47
2019-03-10T10:46:14.722Z,13.37
2019-03-10T10:48:47.626Z,15.80
2019-03-10T10:51:17.806Z,17.10
2019-03-10T10:53:54.094Z,10.17
2019-03-10T10:56:24.294Z,15.83
2019-03-10T10:59:06.326Z,13.50
2019-03-10T11:01:39.674Z,11.23
2019-03-10T11:04:26.122Z,18.40
2019-03-10T11:06:56.434Z,9.73
2019-03-10T11:09:43.081Z,12.93
2019-03-10T11:12:15.929Z,11.77
2019-03-10T11:14:46.118Z,17.37
2019-03-10T11:17:16.394Z,10.20
2019-03-10T11:19:46.578Z,11.50
2019-03-10T11:22:19.477Z,12.83
2019-03-10T11:24:49.689Z,11.57
2019-03-10T11:27:31.734Z,13.73
2019-03-10T11:30:20.289Z,16.20
2019-03-10T11:33:05.427Z,11.87
2019-03-10T11:35:35.709Z,12.73
2019-03-10T11:38:06.029Z,14.97
2019-03-10T11:40:41.830Z,14.07
2019-03-10T11:43:12.005Z,10.90
2019-03-10T11:45:57.397Z,10.53
2019-03-10T11:48:33.526Z,15.27
2019-03-10T11:51:06.238Z,24.27
2019-03-10T11:53:42.160Z,15.20
2019-03-10T11:56:18.264Z,11.53
2019-03-10T11:58:48.485Z,15.03
2019-03-10T12:01:34.741Z,20.23
2019-03-10T12:04:04.912Z,15.50
2019-03-10T12:06:49.973Z,15.17
2019-03-10T12:09:20.749Z,9.37
2019-03-10T12:11:49.357Z,12.23
2019-03-10T12:14:17.870Z,13.73
2019-03-10T12:16:46.483Z,10.63
2019-03-10T12:19:15.021Z,13.53
2019-03-10T12:21:43.652Z,13.20
2019-03-10T12:24:12.261Z,12.13
2019-03-10T12:26:40.800Z,11.80
2019-03-10T12:29:09.294Z,8.17
2019-03-10T12:31:37.837Z,10.17
2019-03-10T12:34:06.468Z,10.77
2019-03-10T12:36:35.144Z,13.77
2019-03-10T12:39:05.634Z,10.93
2019-03-10T12:41:34.166Z,14.30
2019-03-10T12:44:02.662Z,10.57
2019-03-10T12:46:31.274Z,10.07
2019-03-10T12:48:59.813Z,11.27
2019-03-10T12:51:29.850Z,11.47
2019-03-10T12:53:58.453Z,8.20
2019-03-10T12:56:26.987Z,12.53
2019-03-10T12:58:55.557Z,12.53
2019-03-10T13:01:24.099Z,11.47
2019-03-10T13:03:58.799Z,11.53
2019-03-10T13:06:22.933Z,13.10
2019-03-10T13:08:51.473Z,12.83
2019-03-10T13:11:20.009Z,8.53
2019-03-10T13:13:48.506Z,7.70
2019-03-10T13:16:17.046Z,5.93
2019-03-10T13:18:45.585Z,7.07
2019-03-10T13:21:14.222Z,8.23
2019-03-10T13:23:42.766Z,6.03
2019-03-10T13:26:11.301Z,4.00
2019-03-10T13:28:39.797Z,5.67
2019-03-10T13:31:08.419Z,5.17
2019-03-10T13:33:38.051Z,7.80
2019-03-10T13:36:07.101Z,12.60
2019-03-10T13:38:35.709Z,8.27
2019-03-10T13:41:04.328Z,9.23
2019-03-10T13:43:32.961Z,7.13
2019-03-10T13:46:01.429Z,9.47
2019-03-10T13:48:29.961Z,8.40
2019-03-10T13:50:58.446Z,8.30
2019-03-10T13:53:26.989Z,9.20
2019-03-10T13:55:55.525Z,13.20
2019-03-10T13:58:24.096Z,7.90
2019-03-10T14:00:52.777Z,13.83
2019-03-10T14:03:21.791Z,17.60
2019-03-10T14:05:50.433Z,23.10
2019-03-10T14:08:19.040Z,20.10
2019-03-10T14:10:47.516Z,13.37
2019-03-10T14:13:17.091Z,10.77
2019-03-10T14:15:45.696Z,12.17
2019-03-10T14:18:14.303Z,14.60
2019-03-10T14:20:42.950Z,13.97
2019-03-10T14:23:11.552Z,14.03
2019-03-10T14:25:40.091Z,21.37
2019-03-10T14:28:08.731Z,28.80
2019-03-10T14:30:37.343Z,20.43
2019-03-10T14:33:05.997Z,22.50
2019-03-10T14:35:34.584Z,20.07
2019-03-10T14:38:03.191Z,22.00
2019-03-10T14:40:32.546Z,19.80
2019-03-10T14:43:01.109Z,13.00
2019-03-10T14:45:29.786Z,12.53
2019-03-10T14:47:58.323Z,11.17
2019-03-10T14:50:26.964Z,13.80
2019-03-10T14:52:56.574Z,18.10
2019-03-10T14:55:25.253Z,20.60
2019-03-10T14:57:53.748Z,14.70
2019-03-10T15:00:24.635Z,17.03
2019-03-10T15:02:53.237Z,18.57
2019-03-10T15:05:22.081Z,18.87
2019-03-10T15:07:50.621Z,19.97
2019-03-10T15:10:19.306Z,18.53
2019-03-10T15:12:47.856Z,14.10
2019-03-10T15:15:22.090Z,13.83
2019-03-10T15:17:50.154Z,10.73
2019-03-10T15:20:21.304Z,10.97
2019-03-10T15:22:49.163Z,7.90
2019-03-10T15:25:21.793Z,10.20
2019-03-10T15:27:50.333Z,12.80
2019-03-10T15:30:20.162Z,6.10
2019-03-10T15:32:48.692Z,8.57
2019-03-10T15:35:17.374Z,10.47
2019-03-10T15:37:46.120Z,9.73
2019-03-10T15:40:16.655Z,6.77
2019-03-10T15:42:45.533Z,10.90
2019-03-10T15:45:15.161Z,13.10
2019-03-10T15:47:43.782Z,10.87
2019-03-10T15:50:18.001Z,13.27
2019-03-10T15:52:46.496Z,10.73
2019-03-10T15:55:15.102Z,9.53
2019-03-10T15:57:50.093Z,12.43
2019-03-10T16:00:16.289Z,9.03
2019-03-10T16:02:45.101Z,13.43
2019-03-10T16:05:13.734Z,10.27
2019-03-10T16:07:42.783Z,7.93
2019-03-10T16:10:15.215Z,12.80
2019-03-10T16:12:49.527Z,8.40
2019-03-10T16:15:23.119Z,11.43
2019-03-10T16:17:51.823Z,12.27
2019-03-10T16:20:20.462Z,11.70
2019-03-10T16:22:49.016Z,10.07
2019-03-10T16:25:20.679Z,12.07
2019-03-10T16:27:50.022Z,10.27
2019-03-10T16:30:20.254Z,13.23
2019-03-10T16:32:48.933Z,11.97
2019-03-10T16:35:17.854Z,9.30
2019-03-10T16:37:46.829Z,11.43
2019-03-10T16:40:16.531Z,8.20
2019-03-10T16:42:45.151Z,8.37
2019-03-10T16:45:16.105Z,8.30
2019-03-10T16:47:44.792Z,9.70
2019-03-10T16:50:15.665Z,6.13
2019-03-10T16:52:44.288Z,8.23
2019-03-10T16:55:12.897Z,8.77
2019-03-10T16:57:41.581Z,9.43
2019-03-10T17:00:11.703Z,10.73
2019-03-10T17:02:42.871Z,15.40
2019-03-10T17:05:15.878Z,29.27
2019-03-10T17:07:44.794Z,37.73
2019-03-10T17:10:16.146Z,22.37
2019-03-10T17:12:46.301Z,19.43
2019-03-10T17:15:22.625Z,28.83
2019-03-10T17:17:51.314Z,35.10
2019-03-10T17:20:20.222Z,35.13
2019-03-10T17:22:49.037Z,35.47
2019-03-10T17:25:17.829Z,35.00
2019-03-10T17:27:46.505Z,35.00
2019-03-10T17:30:25.069Z,23.67
2019-03-10T17:32:53.759Z,19.17
2019-03-10T17:35:22.473Z,19.47
2019-03-10T17:37:51.121Z,20.73
2019-03-10T17:40:20.928Z,24.63
2019-03-10T17:42:50.122Z,41.10
2019-03-10T17:45:19.755Z,44.63
2019-03-10T17:47:48.561Z,48.20
2019-03-10T17:50:18.066Z,63.33
2019-03-10T17:52:47.169Z,65.33
2019-03-10T17:55:20.022Z,77.90
2019-03-10T17:57:48.696Z,50.97
2019-03-10T18:00:19.878Z,48.23
2019-03-10T18:02:48.497Z,46.33
2019-03-10T18:05:17.125Z,41.97
2019-03-10T18:07:45.829Z,53.97
2019-03-10T18:10:16.016Z,44.53
2019-03-10T18:12:45.294Z,43.87
2019-03-10T18:15:18.026Z,44.43
2019-03-10T18:17:46.730Z,46.93
2019-03-10T18:20:17.375Z,43.47
2019-03-10T18:22:46.094Z,45.90
2019-03-10T18:25:15.002Z,41.17
2019-03-10T18:27:43.942Z,41.87
2019-03-10T18:30:22.541Z,35.80
2019-03-10T18:32:51.149Z,37.17
2019-03-10T18:35:19.774Z,39.37
2019-03-10T18:37:48.473Z,45.17
2019-03-10T18:40:21.813Z,43.60
2019-03-10T18:42:50.535Z,44.03
2019-03-10T18:45:20.539Z,45.83
2019-03-10T18:47:49.226Z,43.57
2019-03-10T18:50:20.097Z,43.97
2019-03-10T18:52:48.910Z,52.10
2019-03-10T18:55:18.692Z,51.80
2019-03-10T18:57:47.314Z,51.97
2019-03-10T19:00:26.173Z,50.63
2019-03-10T19:02:54.923Z,51.90
2019-03-10T19:05:23.715Z,46.43
2019-03-10T19:07:52.394Z,47.83
2019-03-10T19:10:21.081Z,47.53
2019-03-10T19:12:49.661Z,53.27
2019-03-10T19:15:26.381Z,48.87
2019-03-10T19:17:55.040Z,48.57
2019-03-10T19:20:23.650Z,53.70
2019-03-10T19:22:52.269Z,65.90
2019-03-10T19:25:20.916Z,58.80
2019-03-10T19:27:49.389Z,60.77
2019-03-10T19:30:21.797Z,55.77
2019-03-10T19:32:50.605Z,52.87
2019-03-10T19:35:21.989Z,57.03
2019-03-10T19:37:50.522Z,63.63
2019-03-10T19:40:20.431Z,61.83
2019-03-10T19:42:49.067Z,65.47
2019-03-10T19:45:19.597Z,56.80
2019-03-10T19:47:49.928Z,52.97
2019-03-10T19:50:27.763Z,52.53
2019-03-10T19:52:56.682Z,52.27
2019-03-10T19:55:25.366Z,45.30
2019-03-10T19:57:54.045Z,38.47
2019-03-10T20:00:22.865Z,41.20
2019-03-10T20:02:51.476Z,38.30
2019-03-10T20:05:21.874Z,36.90
2019-03-10T20:07:50.420Z,41.80
2019-03-10T20:10:20.215Z,53.00
2019-03-10T20:12:48.829Z,51.47
2019-03-10T20:15:22.238Z,46.67
2019-03-10T20:17:50.858Z,46.87
2019-03-10T20:20:30.374Z,42.67
2019-03-10T20:23:00.993Z,42.87
2019-03-10T20:25:29.178Z,30.27
2019-03-10T20:27:57.757Z,35.73
2019-03-10T20:30:29.117Z,26.03
2019-03-10T20:32:57.732Z,30.40
2019-03-10T20:35:26.397Z,24.10
2019-03-10T20:37:54.990Z,25.73
2019-03-10T20:40:25.912Z,21.60
2019-03-10T20:42:54.491Z,25.33
2019-03-10T20:45:24.625Z,26.07
2019-03-10T20:47:56.125Z,28.10
2019-03-10T20:50:25.272Z,29.30
2019-03-10T20:52:53.949Z,31.77
2019-03-10T20:55:22.568Z,30.20
2019-03-10T20:57:51.146Z,24.37
2019-03-10T21:00:24.629Z,23.57
2019-03-10T21:02:53.313Z,24.20
2019-03-10T21:05:22.022Z,24.57
2019-03-10T21:07:50.639Z,28.77
2019-03-10T21:10:25.896Z,27.90
2019-03-10T21:12:54.537Z,30.53
2019-03-10T21:15:26.074Z,26.67
2019-03-10T21:17:54.266Z,27.50
2019-03-10T21:20:26.427Z,24.63
2019-03-10T21:22:55.087Z,28.20
2019-03-10T21:25:24.822Z,31.60
2019-03-10T21:27:53.386Z,69.17
2019-03-10T21:30:26.589Z,53.20
2019-03-10T21:32:55.199Z,37.70
2019-03-10T21:35:23.849Z,31.43
2019-03-10T21:37:52.464Z,35.37
2019-03-10T21:40:29.269Z,30.13
2019-03-10T21:42:57.812Z,26.40
2019-03-10T21:45:26.428Z,20.83
2019-03-10T21:47:55.061Z,26.37
2019-03-10T21:50:23.668Z,22.13
2019-03-10T21:52:53.129Z,20.10
2019-03-10T21:55:23.301Z,26.17
2019-03-10T21:57:51.841Z,34.90
2019-03-10T22:00:20.925Z,24.73
2019-03-10T22:02:49.633Z,24.03
2019-03-10T22:05:18.471Z,23.77
2019-03-10T22:07:47.216Z,17.27
2019-03-10T22:10:26.266Z,21.83
2019-03-10T22:12:48.087Z,20.67
2019-03-10T22:15:20.440Z,21.50
2019-03-10T22:17:49.144Z,23.60
2019-03-10T22:20:18.428Z,23.87
2019-03-10T22:22:49.848Z,23.50
2019-03-10T22:25:17.747Z,23.23
2019-03-10T22:27:46.599Z,22.03
2019-03-10T22:30:22.579Z,22.37
2019-03-10T22:32:51.295Z,17.17
2019-03-10T22:35:19.969Z,17.07
2019-03-10T22:37:48.677Z,13.00
2019-03-10T22:40:20.313Z,12.97
2019-03-10T22:42:48.857Z,15.10
2019-03-10T22:45:18.661Z,11.50
2019-03-10T22:47:47.339Z,10.17
2019-03-10T22:50:16.643Z,9.30
2019-03-10T22:52:45.963Z,9.20
2019-03-10T22:55:16.263Z,10.00
2019-03-10T22:57:44.878Z,6.67
2019-03-10T23:00:21.871Z,9.60
2019-03-10T23:02:50.409Z,9.53
2019-03-10T23:05:19.086Z,8.23
2019-03-10T23:07:47.777Z,8.47
2019-03-10T23:10:16.585Z,8.57
2019-03-10T23:12:45.185Z,9.20
2019-03-10T23:15:14.427Z,12.20
2019-03-10T23:17:43.186Z,9.60
2019-03-10T23:20:16.349Z,9.20
2019-03-10T23:22:44.990Z,13.00
2019-03-10T23:25:13.665Z,7.17
2019-03-10T23:27:42.421Z,12.27
2019-03-10T23:30:17.764Z,9.07
2019-03-10T23:32:46.305Z,9.57
2019-03-10T23:35:15.147Z,8.20
2019-03-10T23:37:43.685Z,7.67
2019-03-10T23:40:17.328Z,11.10
2019-03-10T23:42:45.895Z,10.97
2019-03-10T23:45:16.641Z,9.17
2019-03-10T23:47:46.866Z,10.20
2019-03-10T23:50:17.546Z,11.27
2019-03-10T23:52:46.227Z,9.50
2019-03-10T23:55:15.011Z,11.30
2019-03-10T23:57:43.715Z,13.00
